sensor_id;sensor_type;location;lat;lon;timestamp;P1;durP1;ratioP1;P2;durP2;ratioP2
53145;SDS011;39042;53.150;5.898;2024-03-02T00:00:22;3.03;;;1.00;;
53145;SDS011;39042;53.150;5.898;2024-03-02T00:02:50;2.67;;;1.65;;
53145;SDS011;39042;53.150;5.898;2024-03-02T00:05:20;2.50;;;1.02;;
53145;SDS011;39042;53.150;5.898;2024-03-02T00:07:52;3.13;;;0.93;;
53145;SDS011;39042;53.150;5.898;2024-03-02T00:10:24;2.38;;;1.05;;
53145;SDS011;39042;53.150;5.898;2024-03-02T00:12:58;2.45;;;0.90;;
53145;SDS011;39042;53.150;5.898;2024-03-02T00:17:57;2.30;;;1.13;;
53145;SDS011;39042;53.150;5.898;2024-03-02T00:20:24;3.35;;;1.15;;
53145;SDS011;39042;53.150;5.898;2024-03-02T00:23:06;2.10;;;0.85;;
53145;SDS011;39042;53.150;5.898;2024-03-02T00:25:43;2.53;;;1.00;;
53145;SDS011;39042;53.150;5.898;2024-03-02T00:33:14;4.35;;;1.50;;
53145;SDS011;39042;53.150;5.898;2024-03-02T00:35:40;5.03;;;1.40;;
53145;SDS011;39042;53.150;5.898;2024-03-02T00:38:10;2.47;;;0.93;;
53145;SDS011;39042;53.150;5.898;2024-03-02T00:40:36;3.60;;;1.55;;
53145;SDS011;39042;53.150;5.898;2024-03-02T00:43:02;3.70;;;1.57;;
53145;SDS011;39042;53.150;5.898;2024-03-02T00:47:54;2.05;;;1.23;;
53145;SDS011;39042;53.150;5.898;2024-03-02T00:50:21;1.70;;;0.95;;
53145;SDS011;39042;53.150;5.898;2024-03-02T00:52:46;1.90;;;1.20;;
53145;SDS011;39042;53.150;5.898;2024-03-02T00:55:14;1.83;;;1.08;;
53145;SDS011;39042;53.150;5.898;2024-03-02T00:57:40;2.38;;;1.25;;
53145;SDS011;39042;53.150;5.898;2024-03-02T01:00:06;2.47;;;1.00;;
53145;SDS011;39042;53.150;5.898;2024-03-02T01:02:35;3.15;;;1.15;;
53145;SDS011;39042;53.150;5.898;2024-03-02T01:05:01;4.47;;;1.65;;
53145;SDS011;39042;53.150;5.898;2024-03-02T01:07:27;2.60;;;1.00;;
53145;SDS011;39042;53.150;5.898;2024-03-02T01:09:53;2.53;;;0.80;;
53145;SDS011;39042;53.150;5.898;2024-03-02T01:12:18;2.67;;;1.13;;
53145;SDS011;39042;53.150;5.898;2024-03-02T01:14:44;2.37;;;1.23;;
53145;SDS011;39042;53.150;5.898;2024-03-02T01:17:10;3.00;;;1.33;;
53145;SDS011;39042;53.150;5.898;2024-03-02T01:19:36;2.80;;;1.00;;
53145;SDS011;39042;53.150;5.898;2024-03-02T01:24:28;1.63;;;1.02;;
53145;SDS011;39042;53.150;5.898;2024-03-02T01:26:54;3.53;;;0.90;;
53145;SDS011;39042;53.150;5.898;2024-03-02T01:29:21;5.28;;;0.98;;
53145;SDS011;39042;53.150;5.898;2024-03-02T01:31:47;2.20;;;0.90;;
53145;SDS011;39042;53.150;5.898;2024-03-02T01:34:13;2.58;;;0.98;;
53145;SDS011;39042;53.150;5.898;2024-03-02T01:36:38;1.30;;;1.00;;
53145;SDS011;39042;53.150;5.898;2024-03-02T01:39:04;1.03;;;0.60;;
53145;SDS011;39042;53.150;5.898;2024-03-02T01:41:34;1.85;;;0.95;;
53145;SDS011;39042;53.150;5.898;2024-03-02T01:44:00;3.83;;;0.80;;
53145;SDS011;39042;53.150;5.898;2024-03-02T01:46:26;3.57;;;1.00;;
53145;SDS011;39042;53.150;5.898;2024-03-02T01:48:52;2.13;;;1.10;;
53145;SDS011;39042;53.150;5.898;2024-03-02T01:51:17;1.70;;;0.80;;
53145;SDS011;39042;53.150;5.898;2024-03-02T01:53:43;2.80;;;0.90;;
53145;SDS011;39042;53.150;5.898;2024-03-02T01:56:09;1.90;;;0.80;;
53145;SDS011;39042;53.150;5.898;2024-03-02T01:58:35;3.73;;;0.70;;
53145;SDS011;39042;53.150;5.898;2024-03-02T02:01:01;2.92;;;0.70;;
53145;SDS011;39042;53.150;5.898;2024-03-02T02:03:27;2.20;;;0.65;;
53145;SDS011;39042;53.150;5.898;2024-03-02T02:05:53;2.20;;;0.90;;
53145;SDS011;39042;53.150;5.898;2024-03-02T02:08:19;2.63;;;0.77;;
53145;SDS011;39042;53.150;5.898;2024-03-02T02:10:44;3.53;;;0.83;;
53145;SDS011;39042;53.150;5.898;2024-03-02T02:13:10;4.83;;;0.70;;
53145;SDS011;39042;53.150;5.898;2024-03-02T02:15:36;2.43;;;0.87;;
53145;SDS011;39042;53.150;5.898;2024-03-02T02:18:02;2.28;;;0.52;;
53145;SDS011;39042;53.150;5.898;2024-03-02T02:22:55;2.25;;;0.80;;
53145;SDS011;39042;53.150;5.898;2024-03-02T02:25:22;2.00;;;0.70;;
53145;SDS011;39042;53.150;5.898;2024-03-02T02:27:48;2.33;;;0.70;;
53145;SDS011;39042;53.150;5.898;2024-03-02T02:30:17;2.30;;;1.03;;
53145;SDS011;39042;53.150;5.898;2024-03-02T02:32:47;1.45;;;0.63;;
53145;SDS011;39042;53.150;5.898;2024-03-02T02:35:13;1.93;;;0.87;;
53145;SDS011;39042;53.150;5.898;2024-03-02T02:37:39;2.17;;;1.10;;
53145;SDS011;39042;53.150;5.898;2024-03-02T02:40:05;2.60;;;0.68;;
53145;SDS011;39042;53.150;5.898;2024-03-02T02:42:31;1.77;;;0.80;;
53145;SDS011;39042;53.150;5.898;2024-03-02T02:44:57;2.63;;;0.90;;
53145;SDS011;39042;53.150;5.898;2024-03-02T02:47:23;1.57;;;0.90;;
53145;SDS011;39042;53.150;5.898;2024-03-02T02:49:49;2.70;;;0.60;;
53145;SDS011;39042;53.150;5.898;2024-03-02T02:52:15;1.27;;;0.63;;
53145;SDS011;39042;53.150;5.898;2024-03-02T02:54:41;2.88;;;1.00;;
53145;SDS011;39042;53.150;5.898;2024-03-02T02:57:07;2.33;;;0.60;;
53145;SDS011;39042;53.150;5.898;2024-03-02T02:59:35;2.83;;;0.57;;
53145;SDS011;39042;53.150;5.898;2024-03-02T03:02:01;1.83;;;0.65;;
53145;SDS011;39042;53.150;5.898;2024-03-02T03:04:27;2.70;;;0.60;;
53145;SDS011;39042;53.150;5.898;2024-03-02T03:06:52;1.83;;;1.07;;
53145;SDS011;39042;53.150;5.898;2024-03-02T03:09:18;1.80;;;0.53;;
53145;SDS011;39042;53.150;5.898;2024-03-02T03:11:44;3.57;;;0.83;;
53145;SDS011;39042;53.150;5.898;2024-03-02T03:14:10;1.67;;;0.93;;
53145;SDS011;39042;53.150;5.898;2024-03-02T03:16:35;3.53;;;0.73;;
53145;SDS011;39042;53.150;5.898;2024-03-02T03:19:01;2.97;;;0.93;;
53145;SDS011;39042;53.150;5.898;2024-03-02T03:21:27;1.67;;;0.80;;
53145;SDS011;39042;53.150;5.898;2024-03-02T03:23:53;1.57;;;0.70;;
53145;SDS011;39042;53.150;5.898;2024-03-02T03:26:20;1.65;;;0.98;;
53145;SDS011;39042;53.150;5.898;2024-03-02T03:28:46;1.77;;;0.87;;
53145;SDS011;39042;53.150;5.898;2024-03-02T03:31:12;2.27;;;0.70;;
53145;SDS011;39042;53.150;5.898;2024-03-02T03:33:37;2.73;;;1.00;;
53145;SDS011;39042;53.150;5.898;2024-03-02T03:36:03;3.27;;;0.77;;
53145;SDS011;39042;53.150;5.898;2024-03-02T03:38:29;2.13;;;0.75;;
53145;SDS011;39042;53.150;5.898;2024-03-02T03:40:55;1.45;;;0.60;;
53145;SDS011;39042;53.150;5.898;2024-03-02T03:43:21;2.58;;;0.95;;
53145;SDS011;39042;53.150;5.898;2024-03-02T03:45:47;2.40;;;1.27;;
53145;SDS011;39042;53.150;5.898;2024-03-02T03:48:13;1.87;;;0.57;;
53145;SDS011;39042;53.150;5.898;2024-03-02T03:50:38;3.27;;;0.60;;
53145;SDS011;39042;53.150;5.898;2024-03-02T03:53:04;2.67;;;0.88;;
53145;SDS011;39042;53.150;5.898;2024-03-02T03:55:30;1.70;;;0.57;;
53145;SDS011;39042;53.150;5.898;2024-03-02T03:57:56;0.90;;;0.40;;
53145;SDS011;39042;53.150;5.898;2024-03-02T04:00:22;0.70;;;0.37;;
53145;SDS011;39042;53.150;5.898;2024-03-02T04:02:47;1.67;;;0.40;;
53145;SDS011;39042;53.150;5.898;2024-03-02T04:05:13;1.90;;;0.30;;
53145;SDS011;39042;53.150;5.898;2024-03-02T04:07:39;1.33;;;0.20;;
53145;SDS011;39042;53.150;5.898;2024-03-02T04:10:14;0.32;;;0.10;;
53145;SDS011;39042;53.150;5.898;2024-03-02T04:12:42;0.50;;;0.15;;
53145;SDS011;39042;53.150;5.898;2024-03-02T04:15:08;1.67;;;0.10;;
53145;SDS011;39042;53.150;5.898;2024-03-02T04:17:33;0.73;;;0.30;;
53145;SDS011;39042;53.150;5.898;2024-03-02T04:20:01;2.15;;;0.20;;
53145;SDS011;39042;53.150;5.898;2024-03-02T04:22:27;0.20;;;0.05;;
53145;SDS011;39042;53.150;5.898;2024-03-02T04:24:53;0.30;;;0.10;;
53145;SDS011;39042;53.150;5.898;2024-03-02T04:27:19;0.45;;;0.05;;
53145;SDS011;39042;53.150;5.898;2024-03-02T04:29:45;2.40;;;0.20;;
53145;SDS011;39042;53.150;5.898;2024-03-02T04:32:11;0.30;;;0.03;;
53145;SDS011;39042;53.150;5.898;2024-03-02T04:34:37;1.77;;;0.10;;
53145;SDS011;39042;53.150;5.898;2024-03-02T04:37:02;0.30;;;0.07;;
53145;SDS011;39042;53.150;5.898;2024-03-02T04:39:28;0.37;;;0.03;;
53145;SDS011;39042;53.150;5.898;2024-03-02T04:41:54;0.30;;;0.00;;
53145;SDS011;39042;53.150;5.898;2024-03-02T04:44:20;0.33;;;0.10;;
53145;SDS011;39042;53.150;5.898;2024-03-02T04:46:45;1.73;;;0.10;;
53145;SDS011;39042;53.150;5.898;2024-03-02T04:49:11;0.47;;;0.10;;
53145;SDS011;39042;53.150;5.898;2024-03-02T04:51:37;0.40;;;0.10;;
53145;SDS011;39042;53.150;5.898;2024-03-02T04:54:03;1.50;;;0.10;;
53145;SDS011;39042;53.150;5.898;2024-03-02T04:56:29;1.07;;;0.10;;
53145;SDS011;39042;53.150;5.898;2024-03-02T04:58:57;0.80;;;0.10;;
53145;SDS011;39042;53.150;5.898;2024-03-02T05:01:23;0.23;;;0.10;;
53145;SDS011;39042;53.150;5.898;2024-03-02T05:03:49;0.20;;;0.00;;
53145;SDS011;39042;53.150;5.898;2024-03-02T05:06:15;0.20;;;0.03;;
53145;SDS011;39042;53.150;5.898;2024-03-02T05:08:40;1.03;;;0.10;;
53145;SDS011;39042;53.150;5.898;2024-03-02T05:11:06;1.27;;;0.10;;
53145;SDS011;39042;53.150;5.898;2024-03-02T05:13:51;1.15;;;0.00;;
53145;SDS011;39042;53.150;5.898;2024-03-02T05:16:16;1.10;;;0.00;;
53145;SDS011;39042;53.150;5.898;2024-03-02T05:18:42;0.57;;;0.00;;
53145;SDS011;39042;53.150;5.898;2024-03-02T05:21:08;0.87;;;0.10;;
53145;SDS011;39042;53.150;5.898;2024-03-02T05:23:34;0.97;;;0.00;;
53145;SDS011;39042;53.150;5.898;2024-03-02T05:26:00;0.90;;;0.03;;
53145;SDS011;39042;53.150;5.898;2024-03-02T05:28:25;1.43;;;0.10;;
53145;SDS011;39042;53.150;5.898;2024-03-02T05:30:51;0.93;;;0.00;;
53145;SDS011;39042;53.150;5.898;2024-03-02T05:33:17;1.03;;;0.10;;
53145;SDS011;39042;53.150;5.898;2024-03-02T05:35:43;0.43;;;0.10;;
53145;SDS011;39042;53.150;5.898;2024-03-02T05:38:09;0.38;;;0.20;;
53145;SDS011;39042;53.150;5.898;2024-03-02T05:40:35;0.53;;;0.00;;
53145;SDS011;39042;53.150;5.898;2024-03-02T05:43:01;0.60;;;0.17;;
53145;SDS011;39042;53.150;5.898;2024-03-02T05:45:26;1.23;;;0.20;;
53145;SDS011;39042;53.150;5.898;2024-03-02T05:47:52;0.70;;;0.30;;
53145;SDS011;39042;53.150;5.898;2024-03-02T05:50:18;0.53;;;0.30;;
53145;SDS011;39042;53.150;5.898;2024-03-02T05:52:45;1.70;;;0.15;;
53145;SDS011;39042;53.150;5.898;2024-03-02T05:55:11;0.40;;;0.10;;
53145;SDS011;39042;53.150;5.898;2024-03-02T05:57:36;1.30;;;0.10;;
53145;SDS011;39042;53.150;5.898;2024-03-02T06:00:08;1.38;;;1.00;;
53145;SDS011;39042;53.150;5.898;2024-03-02T06:02:41;0.82;;;0.10;;
53145;SDS011;39042;53.150;5.898;2024-03-02T06:05:07;0.50;;;0.10;;
53145;SDS011;39042;53.150;5.898;2024-03-02T06:07:32;1.93;;;0.10;;
53145;SDS011;39042;53.150;5.898;2024-03-02T06:09:58;1.37;;;0.10;;
53145;SDS011;39042;53.150;5.898;2024-03-02T06:12:24;1.13;;;0.10;;
53145;SDS011;39042;53.150;5.898;2024-03-02T06:14:50;1.27;;;0.10;;
53145;SDS011;39042;53.150;5.898;2024-03-02T06:17:16;0.30;;;0.20;;
53145;SDS011;39042;53.150;5.898;2024-03-02T06:19:41;0.70;;;0.10;;
53145;SDS011;39042;53.150;5.898;2024-03-02T06:22:07;0.70;;;0.20;;
53145;SDS011;39042;53.150;5.898;2024-03-02T06:24:36;0.95;;;0.10;;
53145;SDS011;39042;53.150;5.898;2024-03-02T06:27:02;0.63;;;0.20;;
53145;SDS011;39042;53.150;5.898;2024-03-02T06:29:33;1.20;;;0.20;;
53145;SDS011;39042;53.150;5.898;2024-03-02T06:31:59;0.55;;;0.10;;
53145;SDS011;39042;53.150;5.898;2024-03-02T06:34:25;0.50;;;0.20;;
53145;SDS011;39042;53.150;5.898;2024-03-02T06:36:51;0.73;;;0.20;;
53145;SDS011;39042;53.150;5.898;2024-03-02T06:39:17;2.70;;;0.20;;
53145;SDS011;39042;53.150;5.898;2024-03-02T06:41:43;2.17;;;0.43;;
53145;SDS011;39042;53.150;5.898;2024-03-02T06:44:08;1.37;;;0.30;;
53145;SDS011;39042;53.150;5.898;2024-03-02T06:46:34;0.97;;;0.20;;
53145;SDS011;39042;53.150;5.898;2024-03-02T06:49:00;0.83;;;0.20;;
53145;SDS011;39042;53.150;5.898;2024-03-02T06:51:27;0.57;;;0.28;;
53145;SDS011;39042;53.150;5.898;2024-03-02T06:53:53;2.17;;;0.40;;
53145;SDS011;39042;53.150;5.898;2024-03-02T06:56:19;0.53;;;0.30;;
53145;SDS011;39042;53.150;5.898;2024-03-02T06:58:48;0.47;;;0.20;;
53145;SDS011;39042;53.150;5.898;2024-03-02T07:01:13;1.03;;;0.20;;
53145;SDS011;39042;53.150;5.898;2024-03-02T07:03:40;1.45;;;0.30;;
53145;SDS011;39042;53.150;5.898;2024-03-02T07:06:05;2.30;;;0.30;;
53145;SDS011;39042;53.150;5.898;2024-03-02T07:08:31;1.10;;;0.20;;
53145;SDS011;39042;53.150;5.898;2024-03-02T07:10:57;0.90;;;0.43;;
53145;SDS011;39042;53.150;5.898;2024-03-02T07:13:23;2.37;;;0.30;;
53145;SDS011;39042;53.150;5.898;2024-03-02T07:15:49;1.00;;;0.40;;
53145;SDS011;39042;53.150;5.898;2024-03-02T07:18:30;1.40;;;0.30;;
53145;SDS011;39042;53.150;5.898;2024-03-02T07:20:59;1.70;;;0.30;;
53145;SDS011;39042;53.150;5.898;2024-03-02T07:23:29;0.60;;;0.28;;
53145;SDS011;39042;53.150;5.898;2024-03-02T07:25:55;0.60;;;0.20;;
53145;SDS011;39042;53.150;5.898;2024-03-02T07:28:22;1.55;;;0.20;;
53145;SDS011;39042;53.150;5.898;2024-03-02T07:35:56;0.85;;;0.15;;
53145;SDS011;39042;53.150;5.898;2024-03-02T07:38:24;1.10;;;0.20;;
53145;SDS011;39042;53.150;5.898;2024-03-02T07:40:50;1.58;;;0.30;;
53145;SDS011;39042;53.150;5.898;2024-03-02T07:43:17;2.47;;;0.28;;
53145;SDS011;39042;53.150;5.898;2024-03-02T07:45:44;1.83;;;0.30;;
53145;SDS011;39042;53.150;5.898;2024-03-02T07:48:10;0.85;;;0.22;;
53145;SDS011;39042;53.150;5.898;2024-03-02T07:50:36;0.77;;;0.40;;
53145;SDS011;39042;53.150;5.898;2024-03-02T07:53:04;0.40;;;0.20;;
53145;SDS011;39042;53.150;5.898;2024-03-02T07:57:57;0.40;;;0.20;;
53145;SDS011;39042;53.150;5.898;2024-03-02T08:00:23;1.25;;;0.15;;
53145;SDS011;39042;53.150;5.898;2024-03-02T08:02:51;1.58;;;0.50;;
53145;SDS011;39042;53.150;5.898;2024-03-02T08:05:17;1.05;;;0.20;;
53145;SDS011;39042;53.150;5.898;2024-03-02T08:07:46;0.70;;;0.20;;
53145;SDS011;39042;53.150;5.898;2024-03-02T08:10:12;1.15;;;0.10;;
53145;SDS011;39042;53.150;5.898;2024-03-02T08:12:39;1.50;;;0.20;;
53145;SDS011;39042;53.150;5.898;2024-03-02T08:15:05;0.70;;;0.10;;
53145;SDS011;39042;53.150;5.898;2024-03-02T08:17:31;0.85;;;0.13;;
53145;SDS011;39042;53.150;5.898;2024-03-02T08:19:57;1.60;;;0.23;;
53145;SDS011;39042;53.150;5.898;2024-03-02T08:22:23;1.35;;;0.10;;
53145;SDS011;39042;53.150;5.898;2024-03-02T08:24:50;0.80;;;0.15;;
53145;SDS011;39042;53.150;5.898;2024-03-02T08:27:16;1.20;;;0.50;;
53145;SDS011;39042;53.150;5.898;2024-03-02T08:29:42;2.33;;;0.30;;
53145;SDS011;39042;53.150;5.898;2024-03-02T08:32:08;3.67;;;0.87;;
53145;SDS011;39042;53.150;5.898;2024-03-02T08:34:34;1.67;;;0.20;;
53145;SDS011;39042;53.150;5.898;2024-03-02T08:37:01;0.68;;;0.20;;
53145;SDS011;39042;53.150;5.898;2024-03-02T08:39:27;0.70;;;0.20;;
53145;SDS011;39042;53.150;5.898;2024-03-02T08:41:53;0.70;;;0.15;;
53145;SDS011;39042;53.150;5.898;2024-03-02T08:44:20;2.22;;;0.25;;
53145;SDS011;39042;53.150;5.898;2024-03-02T08:46:46;1.10;;;0.30;;
53145;SDS011;39042;53.150;5.898;2024-03-02T08:49:12;1.70;;;0.30;;
53145;SDS011;39042;53.150;5.898;2024-03-02T08:51:38;0.60;;;0.10;;
53145;SDS011;39042;53.150;5.898;2024-03-02T08:54:04;2.50;;;0.20;;
53145;SDS011;39042;53.150;5.898;2024-03-02T08:56:30;2.00;;;0.20;;
53145;SDS011;39042;53.150;5.898;2024-03-02T08:58:56;2.70;;;0.28;;
53145;SDS011;39042;53.150;5.898;2024-03-02T09:01:23;4.43;;;0.30;;
53145;SDS011;39042;53.150;5.898;2024-03-02T09:03:49;1.48;;;0.13;;
53145;SDS011;39042;53.150;5.898;2024-03-02T09:06:15;0.63;;;0.10;;
53145;SDS011;39042;53.150;5.898;2024-03-02T09:08:45;1.95;;;0.30;;
53145;SDS011;39042;53.150;5.898;2024-03-02T09:11:11;1.93;;;0.30;;
53145;SDS011;39042;53.150;5.898;2024-03-02T09:13:37;3.53;;;0.20;;
53145;SDS011;39042;53.150;5.898;2024-03-02T09:16:03;1.23;;;0.20;;
53145;SDS011;39042;53.150;5.898;2024-03-02T09:18:30;2.25;;;0.63;;
53145;SDS011;39042;53.150;5.898;2024-03-02T09:20:56;1.60;;;0.20;;
53145;SDS011;39042;53.150;5.898;2024-03-02T09:23:22;2.53;;;0.43;;
53145;SDS011;39042;53.150;5.898;2024-03-02T09:25:48;0.87;;;0.20;;
53145;SDS011;39042;53.150;5.898;2024-03-02T09:28:17;1.17;;;0.22;;
53145;SDS011;39042;53.150;5.898;2024-03-02T09:30:42;1.70;;;0.20;;
53145;SDS011;39042;53.150;5.898;2024-03-02T09:33:08;2.40;;;0.20;;
53145;SDS011;39042;53.150;5.898;2024-03-02T09:35:34;2.57;;;0.30;;
53145;SDS011;39042;53.150;5.898;2024-03-02T09:38:00;1.03;;;0.20;;
53145;SDS011;39042;53.150;5.898;2024-03-02T09:40:25;1.40;;;0.37;;
53145;SDS011;39042;53.150;5.898;2024-03-02T09:45:21;1.15;;;0.43;;
53145;SDS011;39042;53.150;5.898;2024-03-02T09:47:49;1.40;;;0.20;;
53145;SDS011;39042;53.150;5.898;2024-03-02T09:50:15;0.85;;;0.10;;
53145;SDS011;39042;53.150;5.898;2024-03-02T09:52:44;0.80;;;0.10;;
53145;SDS011;39042;53.150;5.898;2024-03-02T09:55:14;1.00;;;0.10;;
53145;SDS011;39042;53.150;5.898;2024-03-02T10:00:07;1.63;;;0.22;;
53145;SDS011;39042;53.150;5.898;2024-03-02T10:05:00;2.08;;;0.20;;
53145;SDS011;39042;53.150;5.898;2024-03-02T10:07:29;4.13;;;0.68;;
53145;SDS011;39042;53.150;5.898;2024-03-02T10:09:55;0.93;;;0.10;;
53145;SDS011;39042;53.150;5.898;2024-03-02T10:12:20;2.17;;;0.13;;
53145;SDS011;39042;53.150;5.898;2024-03-02T10:14:47;3.08;;;0.20;;
53145;SDS011;39042;53.150;5.898;2024-03-02T10:17:17;1.38;;;0.20;;
53145;SDS011;39042;53.150;5.898;2024-03-02T10:19:43;2.57;;;0.30;;
53145;SDS011;39042;53.150;5.898;2024-03-02T10:22:09;2.70;;;0.40;;
53145;SDS011;39042;53.150;5.898;2024-03-02T10:24:43;1.35;;;0.30;;
53145;SDS011;39042;53.150;5.898;2024-03-02T10:27:10;1.73;;;0.40;;
53145;SDS011;39042;53.150;5.898;2024-03-02T10:29:46;3.90;;;0.70;;
53145;SDS011;39042;53.150;5.898;2024-03-02T10:32:13;2.45;;;0.60;;
53145;SDS011;39042;53.150;5.898;2024-03-02T10:34:42;3.37;;;0.50;;
53145;SDS011;39042;53.150;5.898;2024-03-02T10:37:10;3.20;;;0.50;;
53145;SDS011;39042;53.150;5.898;2024-03-02T10:39:37;4.35;;;0.47;;
53145;SDS011;39042;53.150;5.898;2024-03-02T10:42:07;3.97;;;0.40;;
53145;SDS011;39042;53.150;5.898;2024-03-02T10:44:33;2.90;;;0.50;;
53145;SDS011;39042;53.150;5.898;2024-03-02T10:47:04;1.83;;;0.30;;
53145;SDS011;39042;53.150;5.898;2024-03-02T10:49:30;2.70;;;0.40;;
53145;SDS011;39042;53.150;5.898;2024-03-02T10:54:23;6.60;;;0.40;;
53145;SDS011;39042;53.150;5.898;2024-03-02T10:57:01;2.40;;;0.30;;
53145;SDS011;39042;53.150;5.898;2024-03-02T10:59:34;1.52;;;0.32;;
53145;SDS011;39042;53.150;5.898;2024-03-02T11:02:00;2.38;;;0.32;;
53145;SDS011;39042;53.150;5.898;2024-03-02T11:04:28;3.42;;;0.60;;
53145;SDS011;39042;53.150;5.898;2024-03-02T11:06:56;2.30;;;0.30;;
53145;SDS011;39042;53.150;5.898;2024-03-02T11:09:28;2.63;;;0.73;;
53145;SDS011;39042;53.150;5.898;2024-03-02T11:12:02;1.55;;;0.20;;
53145;SDS011;39042;53.150;5.898;2024-03-02T11:14:31;3.10;;;0.40;;
53145;SDS011;39042;53.150;5.898;2024-03-02T11:17:01;2.17;;;0.22;;
53145;SDS011;39042;53.150;5.898;2024-03-02T11:19:28;3.80;;;0.45;;
53145;SDS011;39042;53.150;5.898;2024-03-02T11:21:55;2.15;;;0.30;;
53145;SDS011;39042;53.150;5.898;2024-03-02T11:26:58;3.15;;;0.57;;
53145;SDS011;39042;53.150;5.898;2024-03-02T11:32:18;3.58;;;0.60;;
53145;SDS011;39042;53.150;5.898;2024-03-02T11:34:49;3.15;;;0.50;;
53145;SDS011;39042;53.150;5.898;2024-03-02T11:37:16;5.80;;;0.50;;
53145;SDS011;39042;53.150;5.898;2024-03-02T11:39:45;1.83;;;0.60;;
53145;SDS011;39042;53.150;5.898;2024-03-02T11:42:14;3.05;;;0.60;;
53145;SDS011;39042;53.150;5.898;2024-03-02T11:44:42;4.13;;;0.63;;
53145;SDS011;39042;53.150;5.898;2024-03-02T11:47:10;4.63;;;0.73;;
53145;SDS011;39042;53.150;5.898;2024-03-02T11:52:07;3.35;;;0.73;;
53145;SDS011;39042;53.150;5.898;2024-03-02T11:54:34;2.17;;;0.60;;
53145;SDS011;39042;53.150;5.898;2024-03-02T11:57:21;4.65;;;0.40;;
53145;SDS011;39042;53.150;5.898;2024-03-02T11:59:47;4.00;;;0.40;;
53145;SDS011;39042;53.150;5.898;2024-03-02T12:02:21;4.25;;;0.57;;
53145;SDS011;39042;53.150;5.898;2024-03-02T12:04:48;3.42;;;0.70;;
53145;SDS011;39042;53.150;5.898;2024-03-02T12:07:19;3.25;;;0.50;;
53145;SDS011;39042;53.150;5.898;2024-03-02T12:09:47;1.80;;;0.35;;
53145;SDS011;39042;53.150;5.898;2024-03-02T12:12:13;3.22;;;0.35;;
53145;SDS011;39042;53.150;5.898;2024-03-02T12:14:49;4.35;;;0.50;;
53145;SDS011;39042;53.150;5.898;2024-03-02T12:17:17;1.10;;;0.40;;
53145;SDS011;39042;53.150;5.898;2024-03-02T12:19:42;3.93;;;0.57;;
53145;SDS011;39042;53.150;5.898;2024-03-02T12:22:09;2.05;;;0.40;;
53145;SDS011;39042;53.150;5.898;2024-03-02T12:24:35;1.90;;;0.30;;
53145;SDS011;39042;53.150;5.898;2024-03-02T12:27:02;2.15;;;0.38;;
53145;SDS011;39042;53.150;5.898;2024-03-02T12:29:29;1.80;;;0.10;;
53145;SDS011;39042;53.150;5.898;2024-03-02T12:31:55;3.45;;;0.17;;
53145;SDS011;39042;53.150;5.898;2024-03-02T12:34:21;3.10;;;0.40;;
53145;SDS011;39042;53.150;5.898;2024-03-02T12:36:48;2.97;;;0.20;;
53145;SDS011;39042;53.150;5.898;2024-03-02T12:39:17;2.28;;;0.15;;
53145;SDS011;39042;53.150;5.898;2024-03-02T12:41:49;1.95;;;0.17;;
53145;SDS011;39042;53.150;5.898;2024-03-02T12:44:19;2.58;;;0.40;;
53145;SDS011;39042;53.150;5.898;2024-03-02T12:46:45;2.58;;;0.30;;
53145;SDS011;39042;53.150;5.898;2024-03-02T12:49:12;3.33;;;0.22;;
53145;SDS011;39042;53.150;5.898;2024-03-02T12:51:41;2.13;;;0.30;;
53145;SDS011;39042;53.150;5.898;2024-03-02T12:56:34;1.73;;;0.30;;
53145;SDS011;39042;53.150;5.898;2024-03-02T12:59:00;2.42;;;0.32;;
53145;SDS011;39042;53.150;5.898;2024-03-02T13:01:26;3.20;;;0.30;;
53145;SDS011;39042;53.150;5.898;2024-03-02T13:03:53;2.78;;;0.50;;
53145;SDS011;39042;53.150;5.898;2024-03-02T13:06:23;2.40;;;0.40;;
53145;SDS011;39042;53.150;5.898;2024-03-02T13:08:52;3.90;;;0.20;;
53145;SDS011;39042;53.150;5.898;2024-03-02T13:11:18;2.20;;;0.10;;
53145;SDS011;39042;53.150;5.898;2024-03-02T13:13:44;3.05;;;0.30;;
53145;SDS011;39042;53.150;5.898;2024-03-02T13:16:10;0.90;;;0.17;;
53145;SDS011;39042;53.150;5.898;2024-03-02T13:18:41;4.93;;;1.92;;
53145;SDS011;39042;53.150;5.898;2024-03-02T13:21:07;4.10;;;1.33;;
53145;SDS011;39042;53.150;5.898;2024-03-02T13:23:33;2.58;;;0.63;;
53145;SDS011;39042;53.150;5.898;2024-03-02T13:25:59;3.72;;;0.98;;
53145;SDS011;39042;53.150;5.898;2024-03-02T13:28:25;4.55;;;1.02;;
53145;SDS011;39042;53.150;5.898;2024-03-02T13:30:51;1.23;;;0.20;;
53145;SDS011;39042;53.150;5.898;2024-03-02T13:33:17;2.42;;;1.00;;
53145;SDS011;39042;53.150;5.898;2024-03-02T13:35:53;3.53;;;1.00;;
53145;SDS011;39042;53.150;5.898;2024-03-02T13:38:20;1.80;;;0.45;;
53145;SDS011;39042;53.150;5.898;2024-03-02T13:40:49;3.80;;;0.77;;
53145;SDS011;39042;53.150;5.898;2024-03-02T13:43:18;4.88;;;0.43;;
53145;SDS011;39042;53.150;5.898;2024-03-02T13:45:44;2.55;;;0.20;;
53145;SDS011;39042;53.150;5.898;2024-03-02T13:48:10;2.80;;;0.10;;
53145;SDS011;39042;53.150;5.898;2024-03-02T13:50:36;1.70;;;0.20;;
53145;SDS011;39042;53.150;5.898;2024-03-02T13:53:02;1.93;;;0.20;;
53145;SDS011;39042;53.150;5.898;2024-03-02T13:55:28;2.83;;;0.70;;
53145;SDS011;39042;53.150;5.898;2024-03-02T13:57:54;1.47;;;0.30;;
53145;SDS011;39042;53.150;5.898;2024-03-02T14:00:20;1.52;;;0.28;;
53145;SDS011;39042;53.150;5.898;2024-03-02T14:02:46;4.07;;;0.40;;
53145;SDS011;39042;53.150;5.898;2024-03-02T14:05:14;4.22;;;0.47;;
53145;SDS011;39042;53.150;5.898;2024-03-02T14:07:41;2.47;;;0.10;;
53145;SDS011;39042;53.150;5.898;2024-03-02T14:10:07;1.67;;;0.10;;
53145;SDS011;39042;53.150;5.898;2024-03-02T14:12:33;2.35;;;0.10;;
53145;SDS011;39042;53.150;5.898;2024-03-02T14:14:59;2.85;;;0.35;;
53145;SDS011;39042;53.150;5.898;2024-03-02T14:17:27;4.40;;;0.30;;
53145;SDS011;39042;53.150;5.898;2024-03-02T14:19:54;3.13;;;0.30;;
53145;SDS011;39042;53.150;5.898;2024-03-02T14:22:20;1.13;;;0.35;;
53145;SDS011;39042;53.150;5.898;2024-03-02T14:24:46;1.33;;;0.38;;
53145;SDS011;39042;53.150;5.898;2024-03-02T14:27:13;3.10;;;0.30;;
53145;SDS011;39042;53.150;5.898;2024-03-02T14:29:39;0.88;;;0.30;;
53145;SDS011;39042;53.150;5.898;2024-03-02T14:32:06;1.85;;;0.30;;
53145;SDS011;39042;53.150;5.898;2024-03-02T14:34:32;3.78;;;1.20;;
53145;SDS011;39042;53.150;5.898;2024-03-02T14:36:59;2.08;;;0.63;;
53145;SDS011;39042;53.150;5.898;2024-03-02T14:39:25;1.33;;;0.50;;
53145;SDS011;39042;53.150;5.898;2024-03-02T14:44:17;2.13;;;0.80;;
53145;SDS011;39042;53.150;5.898;2024-03-02T14:46:48;2.47;;;0.75;;
53145;SDS011;39042;53.150;5.898;2024-03-02T14:49:14;1.75;;;0.20;;
53145;SDS011;39042;53.150;5.898;2024-03-02T14:51:40;3.00;;;0.45;;
53145;SDS011;39042;53.150;5.898;2024-03-02T14:54:09;0.80;;;0.20;;
53145;SDS011;39042;53.150;5.898;2024-03-02T14:56:44;1.75;;;0.30;;
53145;SDS011;39042;53.150;5.898;2024-03-02T14:59:10;2.50;;;0.30;;
53145;SDS011;39042;53.150;5.898;2024-03-02T15:01:36;1.83;;;0.30;;
53145;SDS011;39042;53.150;5.898;2024-03-02T15:04:02;0.93;;;0.32;;
53145;SDS011;39042;53.150;5.898;2024-03-02T15:06:30;0.70;;;0.30;;
53145;SDS011;39042;53.150;5.898;2024-03-02T15:09:05;4.10;;;0.50;;
53145;SDS011;39042;53.150;5.898;2024-03-02T15:14:08;2.67;;;0.40;;
53145;SDS011;39042;53.150;5.898;2024-03-02T15:16:34;4.53;;;0.77;;
53145;SDS011;39042;53.150;5.898;2024-03-02T15:19:00;2.10;;;0.50;;
53145;SDS011;39042;53.150;5.898;2024-03-02T15:21:27;1.55;;;0.32;;
53145;SDS011;39042;53.150;5.898;2024-03-02T15:23:53;2.50;;;0.67;;
53145;SDS011;39042;53.150;5.898;2024-03-02T15:26:19;3.17;;;0.98;;
53145;SDS011;39042;53.150;5.898;2024-03-02T15:28:45;2.10;;;1.23;;
53145;SDS011;39042;53.150;5.898;2024-03-02T15:31:11;3.85;;;1.40;;
53145;SDS011;39042;53.150;5.898;2024-03-02T15:33:37;3.77;;;2.03;;